createdAt,value
2019-03-22T00:00:56.617Z,1026.94
2019-03-22T00:01:56.617Z,1026.94
2019-03-22T00:02:56.614Z,1026.97
2019-03-22T00:03:56.594Z,1027.02
2019-03-22T00:04:56.588Z,1026.99
2019-03-22T00:05:56.582Z,1026.96
2019-03-22T00:06:56.574Z,1027.01
2019-03-22T00:07:56.568Z,1026.99
2019-03-22T00:08:56.550Z,1026.98
2019-03-22T00:09:56.554Z,1026.98
2019-03-22T00:10:56.538Z,1026.93
2019-03-22T00:11:56.530Z,1026.91
2019-03-22T00:12:56.515Z,1026.90
2019-03-22T00:13:56.508Z,1026.91
2019-03-22T00:14:56.503Z,1026.91
2019-03-22T00:15:56.495Z,1026.87
2019-03-22T00:16:56.489Z,1026.91
2019-03-22T00:17:56.481Z,1026.89
2019-03-22T00:18:56.478Z,1026.94
2019-03-22T00:19:56.466Z,1026.92
2019-03-22T00:20:56.451Z,1026.88
2019-03-22T00:21:56.444Z,1026.94
2019-03-22T00:22:56.434Z,1026.93
2019-03-22T00:23:56.423Z,1026.91
2019-03-22T00:24:56.421Z,1026.92
2019-03-22T00:25:56.413Z,1026.92
2019-03-22T00:26:56.419Z,1026.90
2019-03-22T00:27:56.391Z,1026.85
2019-03-22T00:28:56.389Z,1026.89
2019-03-22T00:29:56.390Z,1026.85
2019-03-22T00:30:56.375Z,1026.86
2019-03-22T00:31:56.365Z,1026.85
2019-03-22T00:32:56.354Z,1026.80
2019-03-22T00:33:56.345Z,1026.82
2019-03-22T00:34:56.336Z,1026.75
2019-03-22T00:35:56.326Z,1026.74
2019-03-22T00:36:56.323Z,1026.74
2019-03-22T00:37:56.314Z,1026.73
2019-03-22T00:38:56.304Z,1026.68
2019-03-22T00:39:56.295Z,1026.71
2019-03-22T00:40:56.282Z,1026.70
2019-03-22T00:41:56.275Z,1026.72
2019-03-22T00:42:56.274Z,1026.67
2019-03-22T00:43:56.262Z,1026.71
2019-03-22T00:44:56.253Z,1026.76
2019-03-22T00:45:56.240Z,1026.68
2019-03-22T00:46:56.236Z,1026.70
2019-03-22T00:47:56.228Z,1026.67
2019-03-22T00:48:56.223Z,1026.67
2019-03-22T00:49:56.220Z,1026.71
2019-03-22T00:50:56.204Z,1026.69
2019-03-22T00:51:56.194Z,1026.73
2019-03-22T00:52:56.183Z,1026.73
2019-03-22T00:53:56.176Z,1026.75
2019-03-22T00:54:56.169Z,1026.75
2019-03-22T00:55:56.160Z,1026.70
2019-03-22T00:56:56.155Z,1026.73
2019-03-22T00:57:56.148Z,1026.73
2019-03-22T00:58:56.135Z,1026.67
2019-03-22T00:59:56.125Z,1026.73
2019-03-22T01:00:56.121Z,1026.70
2019-03-22T01:01:56.113Z,1026.71
2019-03-22T01:02:56.101Z,1026.72
2019-03-22T01:03:56.094Z,1026.75
2019-03-22T01:04:56.083Z,1026.73
2019-03-22T01:05:56.075Z,1026.75
2019-03-22T01:06:56.067Z,1026.72
2019-03-22T01:07:56.055Z,1026.73
2019-03-22T01:08:56.051Z,1026.69
2019-03-22T01:09:56.043Z,1026.75
2019-03-22T01:10:56.036Z,1026.74
2019-03-22T01:11:56.027Z,1026.76
2019-03-22T01:12:56.014Z,1026.75
2019-03-22T01:13:56.006Z,1026.77
2019-03-22T01:14:56.002Z,1026.75
2019-03-22T01:15:55.993Z,1026.81
2019-03-22T01:16:55.979Z,1026.76
2019-03-22T01:17:55.971Z,1026.79
2019-03-22T01:18:55.961Z,1026.74
2019-03-22T01:19:55.950Z,1026.82
2019-03-22T01:20:55.946Z,1026.78
2019-03-22T01:21:55.938Z,1026.73
2019-03-22T01:22:55.930Z,1026.78
2019-03-22T01:23:55.922Z,1026.76
2019-03-22T01:24:55.907Z,1026.78
2019-03-22T01:25:55.899Z,1026.78
2019-03-22T01:26:55.893Z,1026.76
2019-03-22T01:27:55.884Z,1026.76
2019-03-22T01:28:55.879Z,1026.77
2019-03-22T01:29:55.871Z,1026.77
2019-03-22T01:30:55.859Z,1026.77
2019-03-22T01:31:55.851Z,1026.79
2019-03-22T01:32:55.845Z,1026.78
2019-03-22T01:33:55.838Z,1026.82
2019-03-22T01:34:55.826Z,1026.81
2019-03-22T01:35:55.815Z,1026.80
2019-03-22T01:36:55.804Z,1026.80
2019-03-22T01:37:55.794Z,1026.74
2019-03-22T01:38:55.786Z,1026.75
2019-03-22T01:39:55.775Z,1026.72
2019-03-22T01:40:55.772Z,1026.73
2019-03-22T01:41:55.764Z,1026.77
2019-03-22T01:42:55.757Z,1026.72
2019-03-22T01:43:55.748Z,1026.71
2019-03-22T01:44:55.734Z,1026.73
2019-03-22T01:45:55.727Z,1026.74
2019-03-22T01:46:55.723Z,1026.72
2019-03-22T01:47:55.719Z,1026.76
2019-03-22T01:48:55.702Z,1026.73
2019-03-22T01:49:55.691Z,1026.68
2019-03-22T01:50:55.679Z,1026.70
2019-03-22T01:51:55.671Z,1026.65
2019-03-22T01:52:55.667Z,1026.59
2019-03-22T01:53:55.665Z,1026.60
2019-03-22T01:54:55.649Z,1026.59
2019-03-22T01:55:55.642Z,1026.63
2019-03-22T01:56:55.627Z,1026.59
2019-03-22T01:57:55.618Z,1026.58
2019-03-22T01:58:55.611Z,1026.57
2019-03-22T01:59:55.602Z,1026.59
2019-03-22T02:00:55.596Z,1026.54
2019-03-22T02:01:55.589Z,1026.58
2019-03-22T02:02:55.577Z,1026.54
2019-03-22T02:03:55.566Z,1026.57
2019-03-22T02:04:55.563Z,1026.57
2019-03-22T02:05:55.555Z,1026.62
2019-03-22T02:06:55.541Z,1026.58
2019-03-22T02:07:55.534Z,1026.59
2019-03-22T02:08:55.518Z,1026.58
2019-03-22T02:09:55.510Z,1026.62
2019-03-22T02:10:55.500Z,1026.61
2019-03-22T02:11:55.493Z,1026.61
2019-03-22T02:12:55.488Z,1026.59
2019-03-22T02:13:55.480Z,1026.57
2019-03-22T02:14:55.472Z,1026.57
2019-03-22T02:15:55.463Z,1026.59
2019-03-22T02:16:55.450Z,1026.52
2019-03-22T02:17:55.440Z,1026.54
2019-03-22T02:18:55.436Z,1026.55
2019-03-22T02:19:55.429Z,1026.56
2019-03-22T02:20:55.419Z,1026.53
2019-03-22T02:21:55.406Z,1026.52
2019-03-22T02:22:55.399Z,1026.50
2019-03-22T02:23:55.383Z,1026.53
2019-03-22T02:24:55.379Z,1026.52
2019-03-22T02:25:55.370Z,1026.55
2019-03-22T02:26:55.360Z,1026.52
2019-03-22T02:28:03.704Z,1026.56
2019-03-22T02:28:55.338Z,1026.54
2019-03-22T02:29:55.333Z,1026.53
2019-03-22T02:30:55.333Z,1026.56
2019-03-22T02:37:55.259Z,1026.40
2019-03-22T02:38:55.250Z,1026.48
2019-03-22T02:39:55.239Z,1026.40
2019-03-22T02:40:55.236Z,1026.39
2019-03-22T02:41:55.225Z,1026.39
2019-03-22T02:42:55.216Z,1026.38
2019-03-22T02:43:55.245Z,1026.40
2019-03-22T02:44:55.191Z,1026.37
2019-03-22T02:45:55.182Z,1026.38
2019-03-22T02:46:55.177Z,1026.38
2019-03-22T02:47:55.166Z,1026.36
2019-03-22T02:48:55.165Z,1026.37
2019-03-22T02:49:55.153Z,1026.30
2019-03-22T02:50:56.247Z,1026.31
2019-03-22T02:51:55.130Z,1026.34
2019-03-22T02:52:55.193Z,1026.36
2019-03-22T02:53:55.117Z,1026.30
2019-03-22T02:54:55.115Z,1026.30
2019-03-22T02:55:55.213Z,1026.34
2019-03-22T02:56:55.087Z,1026.29
2019-03-22T02:57:55.072Z,1026.32
2019-03-22T02:58:55.073Z,1026.30
2019-03-22T02:59:55.058Z,1026.24
2019-03-22T03:00:55.056Z,1026.27
2019-03-22T03:01:55.041Z,1026.26
2019-03-22T03:02:55.045Z,1026.27
2019-03-22T03:03:55.033Z,1026.28
2019-03-22T03:04:55.007Z,1026.34
2019-03-22T03:05:54.998Z,1026.32
2019-03-22T03:06:54.993Z,1026.26
2019-03-22T03:07:54.984Z,1026.27
2019-03-22T03:08:54.969Z,1026.23
2019-03-22T03:09:54.959Z,1026.25
2019-03-22T03:10:54.955Z,1026.23
2019-03-22T03:11:54.950Z,1026.18
2019-03-22T03:12:54.940Z,1026.19
2019-03-22T03:13:54.965Z,1026.24
2019-03-22T03:14:54.934Z,1026.20
2019-03-22T03:15:54.914Z,1026.17
2019-03-22T03:16:54.912Z,1026.21
2019-03-22T03:17:54.889Z,1026.21
2019-03-22T03:18:54.882Z,1026.17
2019-03-22T03:19:54.870Z,1026.20
2019-03-22T03:20:54.866Z,1026.23
2019-03-22T03:21:54.889Z,1026.19
2019-03-22T03:22:54.841Z,1026.15
2019-03-22T03:23:54.842Z,1026.16
2019-03-22T03:24:54.829Z,1026.19
2019-03-22T03:25:54.821Z,1026.20
2019-03-22T03:26:54.812Z,1026.15
2019-03-22T03:27:54.801Z,1026.16
2019-03-22T03:28:54.787Z,1026.13
2019-03-22T03:29:54.778Z,1026.11
2019-03-22T03:30:54.785Z,1026.10
2019-03-22T03:31:54.763Z,1026.15
2019-03-22T03:32:54.903Z,1026.16
2019-03-22T03:33:54.759Z,1026.19
2019-03-22T03:34:54.736Z,1026.21
2019-03-22T03:35:54.727Z,1026.22
2019-03-22T03:36:54.712Z,1026.22
2019-03-22T03:37:54.703Z,1026.23
2019-03-22T03:38:54.699Z,1026.20
2019-03-22T03:39:54.689Z,1026.22
2019-03-22T03:40:54.676Z,1026.23
2019-03-22T03:41:54.665Z,1026.21
2019-03-22T03:42:54.658Z,1026.22
2019-03-22T03:43:54.651Z,1026.23
2019-03-22T03:44:54.642Z,1026.18
2019-03-22T03:45:54.640Z,1026.21
2019-03-22T03:46:54.629Z,1026.23
2019-03-22T03:47:54.614Z,1026.24
2019-03-22T03:48:54.612Z,1026.24
2019-03-22T03:49:54.707Z,1026.27
2019-03-22T03:50:54.582Z,1026.27
2019-03-22T03:51:54.572Z,1026.30
2019-03-22T03:52:54.568Z,1026.29
2019-03-22T03:53:54.558Z,1026.28
2019-03-22T03:54:54.544Z,1026.27
2019-03-22T03:55:54.534Z,1026.27
2019-03-22T03:56:54.530Z,1026.25
2019-03-22T03:57:54.522Z,1026.23
2019-03-22T03:58:54.517Z,1026.21
2019-03-22T03:59:54.503Z,1026.17
2019-03-22T04:00:54.491Z,1026.16
2019-03-22T04:01:54.484Z,1026.16
2019-03-22T04:02:54.469Z,1026.19
2019-03-22T04:03:54.460Z,1026.15
2019-03-22T04:04:54.455Z,1026.19
2019-03-22T04:05:54.444Z,1026.20
2019-03-22T04:06:54.441Z,1026.19
2019-03-22T04:07:54.440Z,1026.20
2019-03-22T04:08:54.415Z,1026.22
2019-03-22T04:09:54.407Z,1026.15
2019-03-22T04:10:54.420Z,1026.15
2019-03-22T04:11:54.399Z,1026.17
2019-03-22T04:12:54.379Z,1026.10
2019-03-22T04:13:54.368Z,1026.13
2019-03-22T04:14:54.357Z,1026.15
2019-03-22T04:15:54.347Z,1026.15
2019-03-22T04:16:54.352Z,1026.12
2019-03-22T04:17:54.334Z,1026.16
2019-03-22T04:18:54.323Z,1026.18
2019-03-22T04:19:54.311Z,1026.15
2019-03-22T04:20:54.299Z,1026.18
2019-03-22T04:21:54.291Z,1026.15
2019-03-22T04:22:54.285Z,1026.14
2019-03-22T04:23:54.273Z,1026.17
2019-03-22T04:24:54.272Z,1026.12
2019-03-22T04:25:54.259Z,1026.16
2019-03-22T04:26:54.245Z,1026.13
2019-03-22T04:27:54.240Z,1026.13
2019-03-22T04:29:06.523Z,1026.14
2019-03-22T04:29:54.230Z,1026.13
2019-03-22T04:30:54.214Z,1026.15
2019-03-22T04:31:54.199Z,1026.13
2019-03-22T04:32:54.187Z,1026.11
2019-03-22T04:33:54.176Z,1026.12
2019-03-22T04:34:54.168Z,1026.11
2019-03-22T04:35:54.157Z,1026.11
2019-03-22T04:36:54.159Z,1026.11
2019-03-22T04:37:54.144Z,1026.08
2019-03-22T04:38:54.136Z,1026.08
2019-03-22T04:39:54.125Z,1026.08
2019-03-22T04:40:54.114Z,1026.10
2019-03-22T04:41:54.101Z,1026.07
2019-03-22T04:42:54.098Z,1026.09
2019-03-22T04:43:54.088Z,1026.08
2019-03-22T04:44:54.074Z,1026.07
2019-03-22T04:45:54.065Z,1026.08
2019-03-22T04:46:54.052Z,1026.09
2019-03-22T04:47:54.042Z,1026.09
2019-03-22T04:48:54.041Z,1026.11
2019-03-22T04:49:54.030Z,1026.12
2019-03-22T04:50:54.020Z,1026.07
2019-03-22T04:51:54.007Z,1026.13
2019-03-22T04:52:53.994Z,1026.11
2019-03-22T04:53:53.985Z,1026.14
2019-03-22T04:54:54.032Z,1026.09
2019-03-22T04:55:53.970Z,1026.03
2019-03-22T04:56:53.962Z,1026.15
2019-03-22T04:57:53.954Z,1026.08
2019-03-22T04:58:53.941Z,1026.09
2019-03-22T04:59:53.933Z,1026.06
2019-03-22T05:00:53.929Z,1026.11
2019-03-22T05:01:53.915Z,1026.05
2019-03-22T05:02:53.902Z,1026.17
2019-03-22T05:03:53.894Z,1026.09
2019-03-22T05:04:53.881Z,1026.12
2019-03-22T05:05:53.883Z,1026.12
2019-03-22T05:06:53.867Z,1026.20
2019-03-22T05:07:53.853Z,1026.16
2019-03-22T05:08:53.849Z,1026.14
2019-03-22T05:09:53.840Z,1026.14
2019-03-22T05:10:53.826Z,1026.15
2019-03-22T05:11:53.820Z,1026.14
2019-03-22T05:12:53.805Z,1026.13
2019-03-22T05:13:53.795Z,1026.19
2019-03-22T05:14:53.791Z,1026.19
2019-03-22T05:15:53.791Z,1026.14
2019-03-22T05:16:53.767Z,1026.20
2019-03-22T05:17:53.756Z,1026.17
2019-03-22T05:18:53.751Z,1026.18
2019-03-22T05:19:53.738Z,1026.14
2019-03-22T05:20:53.732Z,1026.14
2019-03-22T05:21:53.725Z,1026.20
2019-03-22T05:22:53.714Z,1026.10
2019-03-22T05:23:53.708Z,1026.14
2019-03-22T05:24:53.688Z,1026.09
2019-03-22T05:25:53.680Z,1026.08
2019-03-22T05:26:53.668Z,1026.09
2019-03-22T05:27:53.661Z,1026.14
2019-03-22T05:28:53.652Z,1026.12
2019-03-22T05:29:53.643Z,1026.11
2019-03-22T05:30:53.629Z,1026.10
2019-03-22T05:31:53.619Z,1026.11
2019-03-22T05:32:53.614Z,1026.06
2019-03-22T05:33:53.605Z,1026.09
2019-03-22T05:34:53.596Z,1026.10
2019-03-22T05:35:53.586Z,1026.10
2019-03-22T05:36:53.573Z,1026.08
2019-03-22T05:37:53.563Z,1026.12
2019-03-22T05:38:53.554Z,1026.06
2019-03-22T05:39:53.544Z,1026.11
2019-03-22T05:40:53.536Z,1026.11
2019-03-22T05:41:53.527Z,1026.10
2019-03-22T05:42:53.518Z,1026.13
2019-03-22T05:43:53.506Z,1026.13
2019-03-22T05:44:53.493Z,1026.13
2019-03-22T05:45:53.483Z,1026.16
2019-03-22T05:46:53.479Z,1026.17
2019-03-22T05:47:53.468Z,1026.17
2019-03-22T05:48:53.453Z,1026.19
2019-03-22T05:49:53.446Z,1026.21
2019-03-22T05:50:53.437Z,1026.21
2019-03-22T05:51:53.425Z,1026.24
2019-03-22T05:52:53.426Z,1026.23
2019-03-22T05:53:53.416Z,1026.23
2019-03-22T05:54:53.404Z,1026.19
2019-03-22T05:55:53.392Z,1026.22
2019-03-22T05:56:53.381Z,1026.21
2019-03-22T05:57:53.372Z,1026.28
2019-03-22T05:58:53.356Z,1026.26
2019-03-22T05:59:53.347Z,1026.26
2019-03-22T06:00:53.342Z,1026.34
2019-03-22T06:01:53.336Z,1026.33
2019-03-22T06:02:53.320Z,1026.26
2019-03-22T06:03:53.307Z,1026.33
2019-03-22T06:04:53.305Z,1026.33
2019-03-22T06:05:53.294Z,1026.39
2019-03-22T06:06:53.287Z,1026.37
2019-03-22T06:07:53.281Z,1026.40
2019-03-22T06:08:53.263Z,1026.38
2019-03-22T06:09:53.256Z,1026.45
2019-03-22T06:10:53.248Z,1026.45
2019-03-22T06:11:53.236Z,1026.41
2019-03-22T06:12:53.224Z,1026.42
2019-03-22T06:13:53.214Z,1026.48
2019-03-22T06:14:53.207Z,1026.53
2019-03-22T06:15:53.199Z,1026.51
2019-03-22T06:16:53.191Z,1026.57
2019-03-22T06:17:53.185Z,1026.56
2019-03-22T06:18:53.171Z,1026.59
2019-03-22T06:19:53.159Z,1026.60
2019-03-22T06:20:53.155Z,1026.54
2019-03-22T06:21:53.145Z,1026.60
2019-03-22T06:22:53.136Z,1026.60
2019-03-22T06:23:53.124Z,1026.64
2019-03-22T06:24:53.119Z,1026.66
2019-03-22T06:25:53.104Z,1026.61
2019-03-22T06:26:53.092Z,1026.66
2019-03-22T06:27:53.084Z,1026.60
2019-03-22T06:28:53.080Z,1026.57
2019-03-22T06:29:54.554Z,1026.59
2019-03-22T06:30:53.066Z,1026.61
2019-03-22T06:31:53.056Z,1026.60
2019-03-22T06:32:53.042Z,1026.63
2019-03-22T06:33:53.033Z,1026.62
2019-03-22T06:34:53.028Z,1026.66
2019-03-22T06:35:53.020Z,1026.69
2019-03-22T06:36:53.005Z,1026.74
2019-03-22T06:37:52.998Z,1026.70
2019-03-22T06:38:52.986Z,1026.68
2019-03-22T06:39:52.980Z,1026.73
2019-03-22T06:40:52.974Z,1026.74
2019-03-22T06:41:52.965Z,1026.74
2019-03-22T06:42:52.959Z,1026.75
2019-03-22T06:43:52.952Z,1026.67
2019-03-22T06:44:52.935Z,1026.69
2019-03-22T06:45:52.930Z,1026.70
2019-03-22T06:46:52.924Z,1026.73
2019-03-22T06:47:52.914Z,1026.82
2019-03-22T06:48:52.921Z,1026.82
2019-03-22T06:49:52.903Z,1026.93
2019-03-22T06:50:52.892Z,1026.97
2019-03-22T06:51:52.884Z,1026.99
2019-03-22T06:52:52.880Z,1026.95
2019-03-22T06:53:52.873Z,1027.01
2019-03-22T06:54:52.864Z,1027.01
2019-03-22T06:55:52.859Z,1027.12
2019-03-22T06:56:52.844Z,1027.22
2019-03-22T06:57:52.837Z,1027.17
2019-03-22T06:58:52.868Z,1027.14
2019-03-22T06:59:52.824Z,1027.19
2019-03-22T07:00:52.820Z,1027.22
2019-03-22T07:01:52.813Z,1027.24
2019-03-22T07:02:52.809Z,1027.43
2019-03-22T07:03:52.801Z,1027.48
2019-03-22T07:04:52.792Z,1027.59
2019-03-22T07:05:52.785Z,1027.65
2019-03-22T07:06:52.784Z,1027.72
2019-03-22T07:07:52.776Z,1027.81
2019-03-22T07:08:52.771Z,1027.67
2019-03-22T07:09:52.764Z,1027.46
2019-03-22T07:10:52.754Z,1027.39
2019-03-22T07:11:52.748Z,1027.32
2019-03-22T07:12:52.748Z,1027.34
2019-03-22T07:13:52.746Z,1027.41
2019-03-22T07:14:52.743Z,1027.31
2019-03-22T07:15:52.739Z,1027.34
2019-03-22T07:16:52.731Z,1027.28
2019-03-22T07:17:52.726Z,1027.34
2019-03-22T07:18:52.720Z,1027.35
2019-03-22T07:19:52.716Z,1027.33
2019-03-22T07:20:52.717Z,1027.48
2019-03-22T07:21:52.715Z,1027.50
2019-03-22T07:22:52.704Z,1027.65
2019-03-22T07:23:52.702Z,1027.57
2019-03-22T07:24:52.703Z,1027.68
2019-03-22T07:25:52.698Z,1027.83
2019-03-22T07:26:52.698Z,1027.91
2019-03-22T07:27:52.695Z,1028.01
2019-03-22T07:28:52.687Z,1028.04
2019-03-22T07:29:52.685Z,1028.01
2019-03-22T07:30:52.685Z,1028.01
2019-03-22T07:31:52.680Z,1028.04
2019-03-22T07:32:52.680Z,1028.00
2019-03-22T07:33:52.685Z,1028.02
2019-03-22T07:34:52.676Z,1027.99
2019-03-22T07:35:52.673Z,1028.04
2019-03-22T07:36:52.669Z,1028.12
2019-03-22T07:37:52.667Z,1028.20
2019-03-22T07:38:52.672Z,1028.32
2019-03-22T07:39:52.671Z,1028.33
2019-03-22T07:40:52.666Z,1028.34
2019-03-22T07:41:52.667Z,1028.21
2019-03-22T07:42:52.669Z,1028.21
2019-03-22T07:43:52.669Z,1028.15
2019-03-22T07:44:52.674Z,1028.19
2019-03-22T07:45:52.674Z,1028.14
2019-03-22T07:46:52.679Z,1028.04
2019-03-22T07:47:52.683Z,1027.99
2019-03-22T07:48:52.674Z,1027.90
2019-03-22T07:49:52.676Z,1027.87
2019-03-22T07:50:52.676Z,1028.29
2019-03-22T07:51:52.676Z,1028.37
2019-03-22T07:52:52.684Z,1028.38
2019-03-22T07:53:52.686Z,1028.44
2019-03-22T07:54:52.683Z,1028.42
2019-03-22T07:55:52.685Z,1028.40
2019-03-22T07:56:52.695Z,1028.44
2019-03-22T07:57:52.695Z,1028.49
2019-03-22T07:58:52.702Z,1028.48
2019-03-22T07:59:52.703Z,1028.52
2019-03-22T08:00:52.702Z,1028.49
2019-03-22T08:01:52.707Z,1028.62
2019-03-22T08:02:52.709Z,1028.54
2019-03-22T08:03:52.711Z,1028.58
2019-03-22T08:04:52.719Z,1028.57
2019-03-22T08:05:52.726Z,1028.64
2019-03-22T08:06:52.725Z,1028.66
2019-03-22T08:07:52.732Z,1028.62
2019-03-22T08:08:52.729Z,1028.63
2019-03-22T08:09:52.778Z,1028.72
2019-03-22T08:10:52.745Z,1028.78
2019-03-22T08:11:52.750Z,1028.79
2019-03-22T08:12:52.749Z,1028.74
2019-03-22T08:13:52.756Z,1028.83
2019-03-22T08:14:52.761Z,1028.85
2019-03-22T08:15:52.769Z,1028.81
2019-03-22T08:16:52.779Z,1028.88
2019-03-22T08:17:52.786Z,1028.87
2019-03-22T08:18:52.796Z,1028.91
2019-03-22T08:19:52.816Z,1028.90
2019-03-22T08:20:52.794Z,1028.92
2019-03-22T08:21:52.804Z,1028.44
2019-03-22T08:22:52.833Z,1028.88
2019-03-22T08:23:52.817Z,1028.75
2019-03-22T08:24:52.828Z,1028.77
2019-03-22T08:25:52.836Z,1028.55
2019-03-22T08:26:52.838Z,1028.44
2019-03-22T08:27:52.846Z,1028.62
2019-03-22T08:28:52.865Z,1028.67
2019-03-22T08:29:52.865Z,1028.68
2019-03-22T08:30:52.880Z,1028.69
2019-03-22T08:31:52.901Z,1028.64
2019-03-22T08:32:52.898Z,1028.64
2019-03-22T08:33:52.891Z,1028.56
2019-03-22T08:34:52.900Z,1028.46
2019-03-22T08:35:52.903Z,1028.40
2019-03-22T08:36:52.943Z,1028.31
2019-03-22T08:37:53.144Z,1028.28
2019-03-22T08:38:52.935Z,1028.28
2019-03-22T08:39:55.795Z,1028.44
2019-03-22T08:40:52.946Z,1028.50
2019-03-22T08:41:52.956Z,1028.39
2019-03-22T08:42:52.989Z,1028.40
2019-03-22T08:43:52.974Z,1028.29
2019-03-22T08:44:52.979Z,1028.18
2019-03-22T08:45:52.988Z,1028.21
2019-03-22T08:46:52.991Z,1028.41
2019-03-22T08:47:53.002Z,1028.44
2019-03-22T08:48:53.017Z,1028.51
2019-03-22T08:49:53.056Z,1028.48
2019-03-22T08:50:53.030Z,1028.54
2019-03-22T08:51:53.038Z,1028.54
2019-03-22T08:52:53.042Z,1028.55
2019-03-22T08:53:55.567Z,1028.57
2019-03-22T08:54:53.061Z,1028.52
2019-03-22T08:55:53.071Z,1028.53
2019-03-22T08:56:53.083Z,1028.55
2019-03-22T08:57:53.120Z,1028.55
2019-03-22T08:58:53.125Z,1028.40
2019-03-22T08:59:53.124Z,1028.52
2019-03-22T09:00:57.856Z,1028.52
2019-03-22T09:01:53.152Z,1028.54
2019-03-22T09:02:53.142Z,1028.53
2019-03-22T09:03:53.165Z,1028.52
2019-03-22T09:04:53.156Z,1028.47
2019-03-22T09:05:53.194Z,1027.80
2019-03-22T09:06:53.186Z,1027.84
2019-03-22T09:07:53.197Z,1027.73
2019-03-22T09:08:53.199Z,1027.74
2019-03-22T09:09:53.212Z,1027.71
2019-03-22T09:10:53.226Z,1027.69
2019-03-22T09:11:53.323Z,1027.71
2019-03-22T09:12:53.243Z,1027.68
2019-03-22T09:13:53.882Z,1027.73
2019-03-22T09:14:53.374Z,1027.77
2019-03-22T09:15:53.307Z,1027.73
2019-03-22T09:16:53.286Z,1027.67
2019-03-22T09:17:53.305Z,1027.65
2019-03-22T09:18:53.345Z,1027.69
2019-03-22T09:19:53.353Z,1027.69
2019-03-22T09:20:53.354Z,1027.68
2019-03-22T09:21:53.348Z,1027.68
2019-03-22T09:22:53.363Z,1027.59
2019-03-22T09:23:53.386Z,1027.54
2019-03-22T09:24:53.382Z,1027.58
2019-03-22T09:25:53.395Z,1027.53
2019-03-22T09:26:53.439Z,1027.47
2019-03-22T09:27:53.453Z,1027.46
2019-03-22T09:28:53.464Z,1027.55
2019-03-22T09:29:53.478Z,1027.59
2019-03-22T09:30:53.454Z,1027.54
2019-03-22T09:31:53.840Z,1027.63
2019-03-22T09:32:53.498Z,1027.69
2019-03-22T09:33:53.493Z,1027.67
2019-03-22T09:34:53.509Z,1027.57
2019-03-22T09:35:53.531Z,1027.59
2019-03-22T09:36:53.528Z,1027.53
2019-03-22T09:37:53.539Z,1027.56
2019-03-22T09:38:53.566Z,1027.63
2019-03-22T09:39:53.602Z,1027.58
2019-03-22T09:40:53.580Z,1027.58
2019-03-22T09:41:53.595Z,1027.55
2019-03-22T09:42:53.641Z,1027.59
2019-03-22T09:43:53.680Z,1027.63
2019-03-22T09:44:53.758Z,1027.61
2019-03-22T09:45:53.680Z,1027.56
2019-03-22T09:46:53.654Z,1027.63
2019-03-22T09:47:53.665Z,1027.60
2019-03-22T09:48:53.674Z,1027.60
2019-03-22T09:49:53.686Z,1027.70
2019-03-22T09:50:53.701Z,1027.63
2019-03-22T09:51:55.212Z,1027.64
2019-03-22T09:52:53.735Z,1027.65
2019-03-22T09:53:53.745Z,1027.58
2019-03-22T09:54:53.758Z,1027.57
2019-03-22T09:55:53.774Z,1027.44
2019-03-22T09:56:53.805Z,1027.39
2019-03-22T09:57:53.880Z,1027.34
2019-03-22T09:58:53.835Z,1027.26
2019-03-22T09:59:53.817Z,1027.26
2019-03-22T10:00:53.931Z,1027.22
2019-03-22T10:01:53.882Z,1027.16
2019-03-22T10:02:53.855Z,1027.13
2019-03-22T10:03:53.869Z,1027.08
2019-03-22T10:04:53.898Z,1027.06
2019-03-22T10:05:53.906Z,1027.01
2019-03-22T10:06:53.947Z,1027.01
2019-03-22T10:07:53.949Z,1027.01
2019-03-22T10:08:53.943Z,1026.96
2019-03-22T10:09:53.968Z,1026.90
2019-03-22T10:10:54.002Z,1026.91
2019-03-22T10:11:53.988Z,1026.88
2019-03-22T10:12:54.005Z,1026.89
2019-03-22T10:13:54.023Z,1026.86
2019-03-22T10:14:54.035Z,1026.83
2019-03-22T10:15:54.049Z,1026.78
2019-03-22T10:16:54.113Z,1026.79
2019-03-22T10:17:54.097Z,1026.77
2019-03-22T10:18:54.127Z,1026.74
2019-03-22T10:19:54.109Z,1026.69
2019-03-22T10:20:54.246Z,1026.69
2019-03-22T10:21:54.136Z,1026.70
2019-03-22T10:22:54.154Z,1026.70
2019-03-22T10:23:54.206Z,1026.72
2019-03-22T10:24:54.249Z,1026.72
2019-03-22T10:25:54.234Z,1026.65
2019-03-22T10:26:54.224Z,1026.64
2019-03-22T10:27:54.241Z,1026.63
2019-03-22T10:28:54.261Z,1026.62
2019-03-22T10:29:54.301Z,1026.60
2019-03-22T10:30:54.308Z,1026.63
2019-03-22T10:31:54.312Z,1026.66
2019-03-22T10:32:54.311Z,1026.64
2019-03-22T10:33:54.324Z,1026.62
2019-03-22T10:34:54.345Z,1026.60
2019-03-22T10:35:54.374Z,1026.60
2019-03-22T10:36:54.390Z,1026.62
2019-03-22T10:38:00.314Z,1026.64
2019-03-22T10:38:54.469Z,1026.58
2019-03-22T10:39:54.500Z,1026.62
2019-03-22T10:40:54.428Z,1026.58
2019-03-22T10:41:54.444Z,1026.56
2019-03-22T10:42:54.471Z,1026.55
2019-03-22T10:43:54.472Z,1026.53
2019-03-22T10:44:54.492Z,1026.50
2019-03-22T10:45:54.506Z,1026.48
2019-03-22T10:46:54.528Z,1026.50
2019-03-22T10:47:54.564Z,1026.49
2019-03-22T10:48:54.557Z,1026.47
2019-03-22T10:49:54.630Z,1026.42
2019-03-22T10:50:54.598Z,1026.44
2019-03-22T10:51:57.484Z,1026.42
2019-03-22T10:52:54.642Z,1026.45
2019-03-22T10:53:54.614Z,1026.36
2019-03-22T10:54:54.687Z,1026.35
2019-03-22T10:55:54.643Z,1026.40
2019-03-22T10:56:54.661Z,1026.37
2019-03-22T10:57:55.578Z,1026.27
2019-03-22T10:58:54.691Z,1026.26
2019-03-22T10:59:54.702Z,1026.22
2019-03-22T11:00:54.711Z,1026.23
2019-03-22T11:02:03.161Z,1026.24
2019-03-22T11:02:54.737Z,1026.27
2019-03-22T11:03:54.788Z,1026.29
2019-03-22T11:04:54.774Z,1026.22
2019-03-22T11:05:54.780Z,1026.21
2019-03-22T11:06:54.792Z,1026.20
2019-03-22T11:07:54.802Z,1026.26
2019-03-22T11:08:54.822Z,1026.25
2019-03-22T11:09:54.833Z,1026.16
2019-03-22T11:10:54.850Z,1026.20
2019-03-22T11:11:54.863Z,1026.19
2019-03-22T11:12:54.872Z,1026.10
2019-03-22T11:13:54.885Z,1026.07
2019-03-22T11:14:54.896Z,1026.12
2019-03-22T11:15:54.910Z,1026.05
2019-03-22T11:16:54.925Z,1026.06
2019-03-22T11:17:54.941Z,1026.05
2019-03-22T11:18:54.955Z,1026.06
2019-03-22T11:19:54.962Z,1026.07
2019-03-22T11:21:04.540Z,1026.06
2019-03-22T11:21:54.982Z,1026.04
2019-03-22T11:22:55.000Z,1025.97
2019-03-22T11:23:55.013Z,1025.99
2019-03-22T11:24:55.020Z,1025.96
2019-03-22T11:26:03.832Z,1025.97
2019-03-22T11:26:55.050Z,1025.90
2019-03-22T11:27:55.064Z,1025.86
2019-03-22T11:28:55.080Z,1025.82
2019-03-22T11:29:55.088Z,1025.81
2019-03-22T11:31:01.158Z,1025.72
2019-03-22T11:31:55.110Z,1025.66
2019-03-22T11:32:55.116Z,1025.61
2019-03-22T11:33:55.129Z,1025.55
2019-03-22T11:34:55.143Z,1025.53
2019-03-22T11:35:55.151Z,1025.46
2019-03-22T11:36:55.168Z,1025.42
2019-03-22T11:37:55.178Z,1025.40
2019-03-22T11:38:55.184Z,1025.39
2019-03-22T11:39:55.191Z,1025.37
2019-03-22T11:40:55.208Z,1025.30
2019-03-22T11:41:55.213Z,1025.29
2019-03-22T11:42:55.219Z,1025.25
2019-03-22T11:43:55.226Z,1025.20
2019-03-22T11:44:55.230Z,1025.16
2019-03-22T11:45:55.235Z,1025.15
2019-03-22T11:46:55.245Z,1025.16
2019-03-22T11:47:55.249Z,1025.10
2019-03-22T11:48:55.262Z,1025.05
2019-03-22T11:49:55.267Z,1025.10
2019-03-22T11:50:55.274Z,1025.04
2019-03-22T11:51:55.285Z,1025.06
2019-03-22T11:52:55.281Z,1025.00
2019-03-22T11:53:55.287Z,1024.96
2019-03-22T11:54:55.296Z,1024.93
2019-03-22T11:55:55.299Z,1024.92
2019-03-22T11:56:55.300Z,1024.87
2019-03-22T11:57:55.307Z,1024.79
2019-03-22T11:58:55.306Z,1024.81
2019-03-22T11:59:55.310Z,1024.82
2019-03-22T12:00:55.318Z,1024.79
2019-03-22T12:01:55.332Z,1024.76
2019-03-22T12:02:55.326Z,1024.70
2019-03-22T12:03:55.328Z,1024.64
2019-03-22T12:04:55.329Z,1024.65
2019-03-22T12:05:55.331Z,1024.70
2019-03-22T12:06:55.338Z,1024.66
2019-03-22T12:07:55.340Z,1024.68
2019-03-22T12:08:55.348Z,1024.63
2019-03-22T12:09:55.350Z,1024.58
2019-03-22T12:10:55.349Z,1024.59
2019-03-22T12:11:55.350Z,1024.53